sensor_id;sensor_type;location;lat;lon;timestamp;P1;durP1;ratioP1;P2;durP2;ratioP2
65799;SDS011;52544;48.116;11.660;2023-05-07T00:01:46;12.02;;;6.28;;
65799;SDS011;52544;48.116;11.660;2023-05-07T00:04:12;10.68;;;6.10;;
65799;SDS011;52544;48.116;11.660;2023-05-07T00:06:38;9.23;;;5.70;;
65799;SDS011;52544;48.116;11.660;2023-05-07T00:09:05;13.05;;;6.28;;
65799;SDS011;52544;48.116;11.660;2023-05-07T00:11:31;8.82;;;6.15;;
65799;SDS011;52544;48.116;11.660;2023-05-07T00:13:57;10.05;;;6.18;;
65799;SDS011;52544;48.116;11.660;2023-05-07T00:16:22;9.15;;;6.13;;
65799;SDS011;52544;48.116;11.660;2023-05-07T00:18:48;12.95;;;6.47;;
65799;SDS011;52544;48.116;11.660;2023-05-07T00:21:13;9.30;;;6.05;;
65799;SDS011;52544;48.116;11.660;2023-05-07T00:23:38;8.65;;;5.68;;
65799;SDS011;52544;48.116;11.660;2023-05-07T00:26:04;12.00;;;6.25;;
65799;SDS011;52544;48.116;11.660;2023-05-07T00:28:29;10.43;;;6.43;;
65799;SDS011;52544;48.116;11.660;2023-05-07T00:30:55;11.32;;;6.35;;
65799;SDS011;52544;48.116;11.660;2023-05-07T00:33:21;8.98;;;5.68;;
65799;SDS011;52544;48.116;11.660;2023-05-07T00:35:47;9.82;;;6.72;;
65799;SDS011;52544;48.116;11.660;2023-05-07T00:38:13;11.73;;;6.93;;
65799;SDS011;52544;48.116;11.660;2023-05-07T00:40:38;10.10;;;6.63;;
65799;SDS011;52544;48.116;11.660;2023-05-07T00:43:04;11.23;;;6.68;;
65799;SDS011;52544;48.116;11.660;2023-05-07T00:45:29;9.57;;;5.93;;
65799;SDS011;52544;48.116;11.660;2023-05-07T00:47:55;8.52;;;6.38;;
65799;SDS011;52544;48.116;11.660;2023-05-07T00:50:22;9.38;;;6.05;;
65799;SDS011;52544;48.116;11.660;2023-05-07T00:52:48;13.63;;;7.40;;
65799;SDS011;52544;48.116;11.660;2023-05-07T00:55:14;9.57;;;6.57;;
65799;SDS011;52544;48.116;11.660;2023-05-07T00:57:40;13.15;;;6.72;;
65799;SDS011;52544;48.116;11.660;2023-05-07T01:00:07;12.32;;;6.63;;
65799;SDS011;52544;48.116;11.660;2023-05-07T01:02:40;9.52;;;6.68;;
65799;SDS011;52544;48.116;11.660;2023-05-07T01:05:07;9.82;;;6.35;;
65799;SDS011;52544;48.116;11.660;2023-05-07T01:07:35;9.80;;;6.32;;
65799;SDS011;52544;48.116;11.660;2023-05-07T01:10:01;10.40;;;6.65;;
65799;SDS011;52544;48.116;11.660;2023-05-07T01:12:28;9.88;;;6.70;;
65799;SDS011;52544;48.116;11.660;2023-05-07T01:14:55;9.77;;;6.07;;
65799;SDS011;52544;48.116;11.660;2023-05-07T01:17:21;10.82;;;6.70;;
65799;SDS011;52544;48.116;11.660;2023-05-07T01:19:47;12.07;;;6.97;;
65799;SDS011;52544;48.116;11.660;2023-05-07T01:22:13;8.95;;;6.40;;
65799;SDS011;52544;48.116;11.660;2023-05-07T01:24:41;12.60;;;6.07;;
65799;SDS011;52544;48.116;11.660;2023-05-07T01:27:07;11.27;;;6.57;;
65799;SDS011;52544;48.116;11.660;2023-05-07T01:29:33;9.18;;;6.00;;
65799;SDS011;52544;48.116;11.660;2023-05-07T01:31:59;11.43;;;5.90;;
65799;SDS011;52544;48.116;11.660;2023-05-07T01:34:26;9.32;;;6.20;;
65799;SDS011;52544;48.116;11.660;2023-05-07T01:36:54;10.02;;;5.95;;
65799;SDS011;52544;48.116;11.660;2023-05-07T01:39:22;7.65;;;5.55;;
65799;SDS011;52544;48.116;11.660;2023-05-07T01:41:49;10.75;;;5.78;;
65799;SDS011;52544;48.116;11.660;2023-05-07T01:44:15;9.68;;;5.85;;
65799;SDS011;52544;48.116;11.660;2023-05-07T01:46:41;12.15;;;6.45;;
65799;SDS011;52544;48.116;11.660;2023-05-07T01:49:07;11.25;;;5.88;;
65799;SDS011;52544;48.116;11.660;2023-05-07T01:51:33;10.93;;;5.95;;
65799;SDS011;52544;48.116;11.660;2023-05-07T01:53:59;8.32;;;5.78;;
65799;SDS011;52544;48.116;11.660;2023-05-07T01:56:25;8.18;;;5.95;;
65799;SDS011;52544;48.116;11.660;2023-05-07T01:58:50;9.40;;;5.90;;
65799;SDS011;52544;48.116;11.660;2023-05-07T02:01:17;8.73;;;5.70;;
65799;SDS011;52544;48.116;11.660;2023-05-07T02:03:43;8.57;;;6.15;;
65799;SDS011;52544;48.116;11.660;2023-05-07T02:06:09;9.82;;;5.20;;
65799;SDS011;52544;48.116;11.660;2023-05-07T02:08:34;10.38;;;5.93;;
65799;SDS011;52544;48.116;11.660;2023-05-07T02:11:00;6.88;;;5.57;;
65799;SDS011;52544;48.116;11.660;2023-05-07T02:13:29;8.05;;;5.57;;
65799;SDS011;52544;48.116;11.660;2023-05-07T02:15:57;11.25;;;5.90;;
65799;SDS011;52544;48.116;11.660;2023-05-07T02:18:23;8.60;;;5.15;;
65799;SDS011;52544;48.116;11.660;2023-05-07T02:20:48;7.68;;;5.47;;
65799;SDS011;52544;48.116;11.660;2023-05-07T02:23:14;11.60;;;5.72;;
65799;SDS011;52544;48.116;11.660;2023-05-07T02:25:39;8.32;;;5.80;;
65799;SDS011;52544;48.116;11.660;2023-05-07T02:28:04;10.32;;;5.75;;
65799;SDS011;52544;48.116;11.660;2023-05-07T02:30:30;9.07;;;5.70;;
65799;SDS011;52544;48.116;11.660;2023-05-07T02:32:55;8.23;;;5.72;;
65799;SDS011;52544;48.116;11.660;2023-05-07T02:35:21;6.88;;;5.13;;
65799;SDS011;52544;48.116;11.660;2023-05-07T02:37:46;9.23;;;5.78;;
65799;SDS011;52544;48.116;11.660;2023-05-07T02:40:12;7.28;;;5.38;;
65799;SDS011;52544;48.116;11.660;2023-05-07T02:42:37;8.38;;;5.38;;
65799;SDS011;52544;48.116;11.660;2023-05-07T02:45:03;9.70;;;5.75;;
65799;SDS011;52544;48.116;11.660;2023-05-07T02:47:28;7.15;;;5.03;;
65799;SDS011;52544;48.116;11.660;2023-05-07T02:49:54;8.40;;;5.53;;
65799;SDS011;52544;48.116;11.660;2023-05-07T02:52:20;8.02;;;5.55;;
65799;SDS011;52544;48.116;11.660;2023-05-07T02:54:46;12.45;;;5.40;;
65799;SDS011;52544;48.116;11.660;2023-05-07T02:57:12;7.70;;;5.35;;
65799;SDS011;52544;48.116;11.660;2023-05-07T02:59:37;9.05;;;5.63;;
65799;SDS011;52544;48.116;11.660;2023-05-07T03:02:03;7.68;;;5.65;;
65799;SDS011;52544;48.116;11.660;2023-05-07T03:04:28;9.35;;;5.25;;
65799;SDS011;52544;48.116;11.660;2023-05-07T03:06:53;6.40;;;4.72;;
65799;SDS011;52544;48.116;11.660;2023-05-07T03:09:19;6.65;;;4.93;;
65799;SDS011;52544;48.116;11.660;2023-05-07T03:11:45;6.63;;;4.70;;
65799;SDS011;52544;48.116;11.660;2023-05-07T03:14:11;8.38;;;5.38;;
65799;SDS011;52544;48.116;11.660;2023-05-07T03:16:37;7.50;;;5.50;;
65799;SDS011;52544;48.116;11.660;2023-05-07T03:19:03;8.88;;;4.90;;
65799;SDS011;52544;48.116;11.660;2023-05-07T03:21:28;9.70;;;5.70;;
65799;SDS011;52544;48.116;11.660;2023-05-07T03:23:54;7.95;;;5.32;;
65799;SDS011;52544;48.116;11.660;2023-05-07T03:26:19;6.50;;;4.93;;
65799;SDS011;52544;48.116;11.660;2023-05-07T03:28:45;6.30;;;4.90;;
65799;SDS011;52544;48.116;11.660;2023-05-07T03:31:10;6.78;;;4.90;;
65799;SDS011;52544;48.116;11.660;2023-05-07T03:33:37;6.85;;;4.80;;
65799;SDS011;52544;48.116;11.660;2023-05-07T03:36:14;7.60;;;5.18;;
65799;SDS011;52544;48.116;11.660;2023-05-07T03:38:39;7.75;;;4.85;;
65799;SDS011;52544;48.116;11.660;2023-05-07T03:41:04;7.43;;;4.85;;
65799;SDS011;52544;48.116;11.660;2023-05-07T03:43:30;6.40;;;5.13;;
65799;SDS011;52544;48.116;11.660;2023-05-07T03:45:56;9.95;;;5.13;;
65799;SDS011;52544;48.116;11.660;2023-05-07T03:48:21;8.30;;;5.18;;
65799;SDS011;52544;48.116;11.660;2023-05-07T03:50:46;7.55;;;5.07;;
65799;SDS011;52544;48.116;11.660;2023-05-07T03:53:12;8.88;;;4.60;;
65799;SDS011;52544;48.116;11.660;2023-05-07T03:55:38;7.82;;;5.30;;
65799;SDS011;52544;48.116;11.660;2023-05-07T03:58:03;7.13;;;4.90;;
65799;SDS011;52544;48.116;11.660;2023-05-07T04:00:28;8.20;;;4.97;;
65799;SDS011;52544;48.116;11.660;2023-05-07T04:02:58;7.97;;;5.10;;
65799;SDS011;52544;48.116;11.660;2023-05-07T04:05:24;7.85;;;5.20;;
65799;SDS011;52544;48.116;11.660;2023-05-07T04:07:49;7.43;;;4.90;;
65799;SDS011;52544;48.116;11.660;2023-05-07T04:10:15;12.25;;;5.40;;
65799;SDS011;52544;48.116;11.660;2023-05-07T04:12:40;10.32;;;5.50;;
65799;SDS011;52544;48.116;11.660;2023-05-07T04:15:06;8.23;;;5.32;;
65799;SDS011;52544;48.116;11.660;2023-05-07T04:17:32;8.02;;;5.32;;
65799;SDS011;52544;48.116;11.660;2023-05-07T04:19:57;7.25;;;5.10;;
65799;SDS011;52544;48.116;11.660;2023-05-07T04:22:22;10.45;;;5.30;;
65799;SDS011;52544;48.116;11.660;2023-05-07T04:24:48;7.18;;;4.80;;
65799;SDS011;52544;48.116;11.660;2023-05-07T04:27:14;9.63;;;5.43;;
65799;SDS011;52544;48.116;11.660;2023-05-07T04:29:39;7.57;;;4.90;;
65799;SDS011;52544;48.116;11.660;2023-05-07T04:32:08;8.63;;;5.20;;
65799;SDS011;52544;48.116;11.660;2023-05-07T04:34:34;7.75;;;5.43;;
65799;SDS011;52544;48.116;11.660;2023-05-07T04:36:59;9.20;;;5.18;;
65799;SDS011;52544;48.116;11.660;2023-05-07T04:39:25;12.40;;;5.65;;
65799;SDS011;52544;48.116;11.660;2023-05-07T04:41:50;8.27;;;4.82;;
65799;SDS011;52544;48.116;11.660;2023-05-07T04:44:16;7.07;;;4.97;;
65799;SDS011;52544;48.116;11.660;2023-05-07T04:46:41;8.05;;;4.95;;
65799;SDS011;52544;48.116;11.660;2023-05-07T04:49:07;12.07;;;5.80;;
65799;SDS011;52544;48.116;11.660;2023-05-07T04:51:32;10.60;;;5.20;;
65799;SDS011;52544;48.116;11.660;2023-05-07T04:53:58;9.50;;;5.30;;
65799;SDS011;52544;48.116;11.660;2023-05-07T04:56:23;8.10;;;5.28;;
65799;SDS011;52544;48.116;11.660;2023-05-07T04:58:48;8.05;;;5.20;;
65799;SDS011;52544;48.116;11.660;2023-05-07T05:01:14;8.15;;;5.43;;
65799;SDS011;52544;48.116;11.660;2023-05-07T05:03:39;8.32;;;5.18;;
65799;SDS011;52544;48.116;11.660;2023-05-07T05:06:05;8.15;;;5.15;;
65799;SDS011;52544;48.116;11.660;2023-05-07T05:08:31;7.82;;;5.03;;
65799;SDS011;52544;48.116;11.660;2023-05-07T05:10:56;5.72;;;4.68;;
65799;SDS011;52544;48.116;11.660;2023-05-07T05:13:22;8.63;;;5.50;;
65799;SDS011;52544;48.116;11.660;2023-05-07T05:15:47;8.73;;;5.18;;
65799;SDS011;52544;48.116;11.660;2023-05-07T05:18:13;9.07;;;4.78;;
65799;SDS011;52544;48.116;11.660;2023-05-07T05:20:38;6.43;;;4.80;;
65799;SDS011;52544;48.116;11.660;2023-05-07T05:23:04;7.57;;;5.05;;
65799;SDS011;52544;48.116;11.660;2023-05-07T05:25:29;7.97;;;5.55;;
65799;SDS011;52544;48.116;11.660;2023-05-07T05:27:55;8.35;;;5.15;;
65799;SDS011;52544;48.116;11.660;2023-05-07T05:30:20;8.52;;;5.25;;
65799;SDS011;52544;48.116;11.660;2023-05-07T05:32:45;8.05;;;5.30;;
65799;SDS011;52544;48.116;11.660;2023-05-07T05:35:11;9.57;;;5.47;;
65799;SDS011;52544;48.116;11.660;2023-05-07T05:37:36;6.20;;;4.95;;
65799;SDS011;52544;48.116;11.660;2023-05-07T05:40:02;9.20;;;4.88;;
65799;SDS011;52544;48.116;11.660;2023-05-07T05:42:27;5.93;;;4.75;;
65799;SDS011;52544;48.116;11.660;2023-05-07T05:44:52;17.58;;;9.35;;
65799;SDS011;52544;48.116;11.660;2023-05-07T05:47:18;10.10;;;6.05;;
65799;SDS011;52544;48.116;11.660;2023-05-07T05:49:43;10.32;;;5.15;;
65799;SDS011;52544;48.116;11.660;2023-05-07T05:52:09;10.15;;;5.90;;
65799;SDS011;52544;48.116;11.660;2023-05-07T05:54:37;7.78;;;5.30;;
65799;SDS011;52544;48.116;11.660;2023-05-07T05:57:02;9.85;;;5.53;;
65799;SDS011;52544;48.116;11.660;2023-05-07T05:59:29;7.35;;;4.97;;
65799;SDS011;52544;48.116;11.660;2023-05-07T06:01:54;8.45;;;5.40;;
65799;SDS011;52544;48.116;11.660;2023-05-07T06:04:20;9.07;;;5.45;;
65799;SDS011;52544;48.116;11.660;2023-05-07T06:06:45;8.82;;;5.45;;
65799;SDS011;52544;48.116;11.660;2023-05-07T06:09:10;10.02;;;5.60;;
65799;SDS011;52544;48.116;11.660;2023-05-07T06:11:36;12.43;;;4.90;;
65799;SDS011;52544;48.116;11.660;2023-05-07T06:14:01;9.60;;;6.20;;
65799;SDS011;52544;48.116;11.660;2023-05-07T06:16:27;6.80;;;5.22;;
65799;SDS011;52544;48.116;11.660;2023-05-07T06:18:52;10.98;;;5.72;;
65799;SDS011;52544;48.116;11.660;2023-05-07T06:21:17;8.35;;;5.00;;
65799;SDS011;52544;48.116;11.660;2023-05-07T06:23:43;8.30;;;4.97;;
65799;SDS011;52544;48.116;11.660;2023-05-07T06:26:08;5.93;;;4.50;;
65799;SDS011;52544;48.116;11.660;2023-05-07T06:28:34;7.25;;;4.60;;
65799;SDS011;52544;48.116;11.660;2023-05-07T06:31:11;7.85;;;4.60;;
65799;SDS011;52544;48.116;11.660;2023-05-07T06:33:41;9.32;;;4.65;;
65799;SDS011;52544;48.116;11.660;2023-05-07T06:36:07;4.97;;;3.97;;
65799;SDS011;52544;48.116;11.660;2023-05-07T06:38:32;5.25;;;3.85;;
65799;SDS011;52544;48.116;11.660;2023-05-07T06:40:57;5.82;;;4.00;;
65799;SDS011;52544;48.116;11.660;2023-05-07T06:43:23;5.57;;;4.05;;
65799;SDS011;52544;48.116;11.660;2023-05-07T06:45:48;6.28;;;3.65;;
65799;SDS011;52544;48.116;11.660;2023-05-07T06:48:13;5.43;;;3.55;;
65799;SDS011;52544;48.116;11.660;2023-05-07T06:50:39;5.95;;;3.33;;
65799;SDS011;52544;48.116;11.660;2023-05-07T06:53:04;7.40;;;3.83;;
65799;SDS011;52544;48.116;11.660;2023-05-07T06:55:30;6.40;;;3.55;;
65799;SDS011;52544;48.116;11.660;2023-05-07T06:57:55;6.78;;;3.47;;
65799;SDS011;52544;48.116;11.660;2023-05-07T07:00:23;4.95;;;3.42;;
65799;SDS011;52544;48.116;11.660;2023-05-07T07:02:48;4.50;;;3.42;;
65799;SDS011;52544;48.116;11.660;2023-05-07T07:05:13;5.80;;;4.22;;
65799;SDS011;52544;48.116;11.660;2023-05-07T07:07:39;6.05;;;3.47;;
65799;SDS011;52544;48.116;11.660;2023-05-07T07:10:04;6.43;;;3.83;;
65799;SDS011;52544;48.116;11.660;2023-05-07T07:12:30;5.05;;;3.33;;
65799;SDS011;52544;48.116;11.660;2023-05-07T07:14:55;4.35;;;3.28;;
65799;SDS011;52544;48.116;11.660;2023-05-07T07:17:21;4.45;;;3.35;;
65799;SDS011;52544;48.116;11.660;2023-05-07T07:19:46;3.92;;;3.13;;
65799;SDS011;52544;48.116;11.660;2023-05-07T07:22:12;5.18;;;3.72;;
65799;SDS011;52544;48.116;11.660;2023-05-07T07:24:37;3.72;;;3.17;;
65799;SDS011;52544;48.116;11.660;2023-05-07T07:27:02;5.40;;;3.50;;
65799;SDS011;52544;48.116;11.660;2023-05-07T07:29:28;3.63;;;2.97;;
65799;SDS011;52544;48.116;11.660;2023-05-07T07:31:53;4.20;;;3.17;;
65799;SDS011;52544;48.116;11.660;2023-05-07T07:34:19;7.18;;;3.30;;
65799;SDS011;52544;48.116;11.660;2023-05-07T07:36:44;6.88;;;3.63;;
65799;SDS011;52544;48.116;11.660;2023-05-07T07:39:09;4.78;;;3.03;;
65799;SDS011;52544;48.116;11.660;2023-05-07T07:41:35;3.88;;;3.33;;
65799;SDS011;52544;48.116;11.660;2023-05-07T07:44:00;8.25;;;5.82;;
65799;SDS011;52544;48.116;11.660;2023-05-07T07:46:26;4.97;;;3.40;;
65799;SDS011;52544;48.116;11.660;2023-05-07T07:48:51;6.03;;;2.80;;
65799;SDS011;52544;48.116;11.660;2023-05-07T07:51:17;4.32;;;2.97;;
65799;SDS011;52544;48.116;11.660;2023-05-07T07:53:42;8.02;;;3.58;;
65799;SDS011;52544;48.116;11.660;2023-05-07T07:56:08;5.47;;;3.42;;
65799;SDS011;52544;48.116;11.660;2023-05-07T07:58:34;5.07;;;2.83;;
65799;SDS011;52544;48.116;11.660;2023-05-07T08:01:00;4.25;;;2.80;;
65799;SDS011;52544;48.116;11.660;2023-05-07T08:03:26;6.80;;;3.30;;
65799;SDS011;52544;48.116;11.660;2023-05-07T08:05:51;6.05;;;3.25;;
65799;SDS011;52544;48.116;11.660;2023-05-07T08:08:17;3.83;;;3.05;;
65799;SDS011;52544;48.116;11.660;2023-05-07T08:10:42;6.82;;;3.40;;
65799;SDS011;52544;48.116;11.660;2023-05-07T08:13:08;5.78;;;3.15;;
65799;SDS011;52544;48.116;11.660;2023-05-07T08:15:33;4.43;;;3.15;;
65799;SDS011;52544;48.116;11.660;2023-05-07T08:17:59;4.72;;;3.00;;
65799;SDS011;52544;48.116;11.660;2023-05-07T08:20:25;3.75;;;3.33;;
65799;SDS011;52544;48.116;11.660;2023-05-07T08:22:51;4.88;;;3.80;;
65799;SDS011;52544;48.116;11.660;2023-05-07T08:25:16;7.22;;;4.45;;
65799;SDS011;52544;48.116;11.660;2023-05-07T08:27:42;7.57;;;4.03;;
65799;SDS011;52544;48.116;11.660;2023-05-07T08:30:07;5.00;;;3.40;;
65799;SDS011;52544;48.116;11.660;2023-05-07T08:32:33;6.13;;;3.40;;
65799;SDS011;52544;48.116;11.660;2023-05-07T08:34:59;4.57;;;3.30;;
65799;SDS011;52544;48.116;11.660;2023-05-07T08:37:25;6.13;;;3.28;;
65799;SDS011;52544;48.116;11.660;2023-05-07T08:39:50;5.20;;;3.50;;
65799;SDS011;52544;48.116;11.660;2023-05-07T08:42:16;4.00;;;3.35;;
65799;SDS011;52544;48.116;11.660;2023-05-07T08:44:42;4.43;;;3.17;;
65799;SDS011;52544;48.116;11.660;2023-05-07T08:47:12;4.00;;;2.90;;
65799;SDS011;52544;48.116;11.660;2023-05-07T08:49:37;4.55;;;3.35;;
65799;SDS011;52544;48.116;11.660;2023-05-07T08:52:03;4.15;;;2.70;;
65799;SDS011;52544;48.116;11.660;2023-05-07T08:54:29;4.70;;;3.30;;
65799;SDS011;52544;48.116;11.660;2023-05-07T08:56:55;4.40;;;3.13;;
65799;SDS011;52544;48.116;11.660;2023-05-07T08:59:21;5.95;;;2.95;;
65799;SDS011;52544;48.116;11.660;2023-05-07T09:01:46;5.25;;;3.30;;
65799;SDS011;52544;48.116;11.660;2023-05-07T09:04:12;2.85;;;2.55;;
65799;SDS011;52544;48.116;11.660;2023-05-07T09:06:38;4.78;;;2.90;;
65799;SDS011;52544;48.116;11.660;2023-05-07T09:09:06;3.80;;;3.20;;
65799;SDS011;52544;48.116;11.660;2023-05-07T09:11:32;4.05;;;3.05;;
65799;SDS011;52544;48.116;11.660;2023-05-07T09:13:57;5.57;;;2.80;;
65799;SDS011;52544;48.116;11.660;2023-05-07T09:16:26;3.75;;;2.78;;
65799;SDS011;52544;48.116;11.660;2023-05-07T09:18:52;4.32;;;2.65;;
65799;SDS011;52544;48.116;11.660;2023-05-07T09:21:18;4.03;;;2.40;;
65799;SDS011;52544;48.116;11.660;2023-05-07T09:23:45;4.18;;;2.70;;
65799;SDS011;52544;48.116;11.660;2023-05-07T09:26:10;3.03;;;2.40;;
65799;SDS011;52544;48.116;11.660;2023-05-07T09:28:39;6.47;;;2.83;;
65799;SDS011;52544;48.116;11.660;2023-05-07T09:31:06;4.05;;;2.90;;
65799;SDS011;52544;48.116;11.660;2023-05-07T09:33:32;2.58;;;1.95;;
65799;SDS011;52544;48.116;11.660;2023-05-07T09:35:57;4.25;;;2.28;;
65799;SDS011;52544;48.116;11.660;2023-05-07T09:38:23;3.20;;;2.30;;
65799;SDS011;52544;48.116;11.660;2023-05-07T09:40:54;2.58;;;2.17;;
65799;SDS011;52544;48.116;11.660;2023-05-07T09:43:27;3.50;;;2.47;;
65799;SDS011;52544;48.116;11.660;2023-05-07T09:45:58;3.22;;;2.42;;
65799;SDS011;52544;48.116;11.660;2023-05-07T09:48:24;3.60;;;2.95;;
65799;SDS011;52544;48.116;11.660;2023-05-07T09:50:51;3.42;;;2.30;;
65799;SDS011;52544;48.116;11.660;2023-05-07T09:53:23;2.85;;;2.50;;
65799;SDS011;52544;48.116;11.660;2023-05-07T09:55:49;4.10;;;2.97;;
65799;SDS011;52544;48.116;11.660;2023-05-07T09:58:16;2.85;;;2.55;;
65799;SDS011;52544;48.116;11.660;2023-05-07T10:00:43;2.72;;;2.33;;
65799;SDS011;52544;48.116;11.660;2023-05-07T10:03:10;3.90;;;2.47;;
65799;SDS011;52544;48.116;11.660;2023-05-07T10:05:36;4.03;;;2.70;;
65799;SDS011;52544;48.116;11.660;2023-05-07T10:08:02;3.50;;;2.88;;
65799;SDS011;52544;48.116;11.660;2023-05-07T10:10:28;4.32;;;2.42;;
65799;SDS011;52544;48.116;11.660;2023-05-07T10:12:54;4.22;;;2.88;;
65799;SDS011;52544;48.116;11.660;2023-05-07T10:15:20;4.10;;;2.83;;
65799;SDS011;52544;48.116;11.660;2023-05-07T10:17:46;2.42;;;2.22;;
65799;SDS011;52544;48.116;11.660;2023-05-07T10:20:13;5.15;;;2.60;;
65799;SDS011;52544;48.116;11.660;2023-05-07T10:22:40;3.95;;;2.45;;
65799;SDS011;52544;48.116;11.660;2023-05-07T10:25:14;4.22;;;2.35;;
65799;SDS011;52544;48.116;11.660;2023-05-07T10:27:43;4.18;;;2.08;;
65799;SDS011;52544;48.116;11.660;2023-05-07T10:32:53;3.00;;;2.00;;
65799;SDS011;52544;48.116;11.660;2023-05-07T10:35:24;2.78;;;2.35;;
65799;SDS011;52544;48.116;11.660;2023-05-07T10:37:54;2.78;;;2.15;;
65799;SDS011;52544;48.116;11.660;2023-05-07T10:40:20;5.75;;;2.20;;
65799;SDS011;52544;48.116;11.660;2023-05-07T10:42:59;2.92;;;2.13;;
65799;SDS011;52544;48.116;11.660;2023-05-07T10:45:26;2.30;;;1.80;;
65799;SDS011;52544;48.116;11.660;2023-05-07T10:50:38;6.32;;;2.60;;
65799;SDS011;52544;48.116;11.660;2023-05-07T10:56:23;6.45;;;2.47;;
65799;SDS011;52544;48.116;11.660;2023-05-07T10:58:43;2.33;;;2.03;;
65799;SDS011;52544;48.116;11.660;2023-05-07T11:01:09;4.60;;;2.17;;
65799;SDS011;52544;48.116;11.660;2023-05-07T11:03:37;2.20;;;1.95;;
65799;SDS011;52544;48.116;11.660;2023-05-07T11:06:38;3.22;;;1.83;;
65799;SDS011;52544;48.116;11.660;2023-05-07T11:09:04;3.80;;;1.75;;
65799;SDS011;52544;48.116;11.660;2023-05-07T11:17:22;3.83;;;2.70;;
65799;SDS011;52544;48.116;11.660;2023-05-07T11:19:51;3.17;;;2.70;;
65799;SDS011;52544;48.116;11.660;2023-05-07T11:25:02;4.00;;;2.58;;
65799;SDS011;52544;48.116;11.660;2023-05-07T11:27:29;5.53;;;3.15;;
65799;SDS011;52544;48.116;11.660;2023-05-07T11:29:55;3.60;;;3.05;;
65799;SDS011;52544;48.116;11.660;2023-05-07T11:32:27;3.97;;;3.03;;
65799;SDS011;52544;48.116;11.660;2023-05-07T11:34:54;5.25;;;3.47;;
65799;SDS011;52544;48.116;11.660;2023-05-07T11:37:21;4.95;;;3.25;;
65799;SDS011;52544;48.116;11.660;2023-05-07T11:39:48;5.82;;;3.20;;
65799;SDS011;52544;48.116;11.660;2023-05-07T11:42:30;5.55;;;3.67;;
65799;SDS011;52544;48.116;11.660;2023-05-07T11:44:57;5.78;;;3.30;;
65799;SDS011;52544;48.116;11.660;2023-05-07T11:47:23;4.75;;;3.00;;
65799;SDS011;52544;48.116;11.660;2023-05-07T11:49:50;6.60;;;3.20;;
65799;SDS011;52544;48.116;11.660;2023-05-07T11:52:19;6.00;;;3.72;;
65799;SDS011;52544;48.116;11.660;2023-05-07T11:54:56;5.00;;;3.58;;
65799;SDS011;52544;48.116;11.660;2023-05-07T11:57:23;4.25;;;3.10;;
65799;SDS011;52544;48.116;11.660;2023-05-07T11:59:53;4.55;;;3.50;;
65799;SDS011;52544;48.116;11.660;2023-05-07T12:02:22;3.83;;;3.42;;
65799;SDS011;52544;48.116;11.660;2023-05-07T12:04:49;5.50;;;3.08;;
65799;SDS011;52544;48.116;11.660;2023-05-07T12:07:16;4.78;;;3.40;;
65799;SDS011;52544;48.116;11.660;2023-05-07T12:09:43;6.55;;;3.63;;
65799;SDS011;52544;48.116;11.660;2023-05-07T12:12:09;5.00;;;3.55;;
65799;SDS011;52544;48.116;11.660;2023-05-07T12:14:41;5.20;;;3.22;;
65799;SDS011;52544;48.116;11.660;2023-05-07T12:17:08;7.18;;;3.75;;
65799;SDS011;52544;48.116;11.660;2023-05-07T12:19:35;5.00;;;3.45;;
65799;SDS011;52544;48.116;11.660;2023-05-07T12:22:04;3.85;;;3.10;;
65799;SDS011;52544;48.116;11.660;2023-05-07T12:24:42;4.47;;;2.80;;
65799;SDS011;52544;48.116;11.660;2023-05-07T12:27:12;6.75;;;3.05;;
65799;SDS011;52544;48.116;11.660;2023-05-07T12:29:38;6.95;;;3.30;;
65799;SDS011;52544;48.116;11.660;2023-05-07T12:32:06;3.25;;;2.72;;
65799;SDS011;52544;48.116;11.660;2023-05-07T12:34:32;4.10;;;3.00;;
65799;SDS011;52544;48.116;11.660;2023-05-07T12:36:57;3.83;;;2.97;;
65799;SDS011;52544;48.116;11.660;2023-05-07T12:39:26;7.68;;;3.30;;
65799;SDS011;52544;48.116;11.660;2023-05-07T12:41:55;5.97;;;2.88;;
65799;SDS011;52544;48.116;11.660;2023-05-07T12:44:23;6.63;;;3.38;;
65799;SDS011;52544;48.116;11.660;2023-05-07T12:46:50;3.63;;;3.05;;
65799;SDS011;52544;48.116;11.660;2023-05-07T12:49:16;3.33;;;2.75;;
65799;SDS011;52544;48.116;11.660;2023-05-07T12:51:43;4.82;;;2.83;;
65799;SDS011;52544;48.116;11.660;2023-05-07T12:54:08;6.60;;;3.00;;
65799;SDS011;52544;48.116;11.660;2023-05-07T12:56:37;4.75;;;2.55;;
65799;SDS011;52544;48.116;11.660;2023-05-07T12:59:02;4.40;;;3.13;;
65799;SDS011;52544;48.116;11.660;2023-05-07T13:01:29;6.22;;;2.78;;
65799;SDS011;52544;48.116;11.660;2023-05-07T13:03:55;2.60;;;2.35;;
65799;SDS011;52544;48.116;11.660;2023-05-07T13:06:25;4.13;;;2.88;;
65799;SDS011;52544;48.116;11.660;2023-05-07T13:08:51;6.60;;;3.25;;
65799;SDS011;52544;48.116;11.660;2023-05-07T13:11:16;3.70;;;2.60;;
65799;SDS011;52544;48.116;11.660;2023-05-07T13:13:42;5.40;;;2.85;;
65799;SDS011;52544;48.116;11.660;2023-05-07T13:16:08;5.22;;;2.58;;
65799;SDS011;52544;48.116;11.660;2023-05-07T13:18:34;4.13;;;2.90;;
65799;SDS011;52544;48.116;11.660;2023-05-07T13:21:00;4.47;;;2.95;;
65799;SDS011;52544;48.116;11.660;2023-05-07T13:23:26;4.47;;;3.00;;
65799;SDS011;52544;48.116;11.660;2023-05-07T13:25:52;4.70;;;3.40;;
65799;SDS011;52544;48.116;11.660;2023-05-07T13:28:19;3.40;;;2.70;;
65799;SDS011;52544;48.116;11.660;2023-05-07T13:30:45;2.75;;;2.38;;
65799;SDS011;52544;48.116;11.660;2023-05-07T13:33:11;2.92;;;2.42;;
65799;SDS011;52544;48.116;11.660;2023-05-07T13:35:36;4.28;;;3.25;;
65799;SDS011;52544;48.116;11.660;2023-05-07T13:38:02;4.78;;;2.75;;
65799;SDS011;52544;48.116;11.660;2023-05-07T13:40:28;6.03;;;2.65;;
65799;SDS011;52544;48.116;11.660;2023-05-07T13:42:53;2.70;;;2.30;;
65799;SDS011;52544;48.116;11.660;2023-05-07T13:45:19;2.58;;;2.17;;
65799;SDS011;52544;48.116;11.660;2023-05-07T13:47:45;2.67;;;2.30;;
65799;SDS011;52544;48.116;11.660;2023-05-07T13:50:11;3.70;;;2.40;;
65799;SDS011;52544;48.116;11.660;2023-05-07T13:52:39;5.10;;;3.08;;
65799;SDS011;52544;48.116;11.660;2023-05-07T13:55:06;4.30;;;2.53;;
65799;SDS011;52544;48.116;11.660;2023-05-07T13:57:32;3.67;;;2.40;;
65799;SDS011;52544;48.116;11.660;2023-05-07T13:59:57;3.35;;;2.30;;
65799;SDS011;52544;48.116;11.660;2023-05-07T14:02:23;4.85;;;2.58;;
65799;SDS011;52544;48.116;11.660;2023-05-07T14:04:48;3.30;;;2.38;;
65799;SDS011;52544;48.116;11.660;2023-05-07T14:07:14;4.85;;;2.22;;
65799;SDS011;52544;48.116;11.660;2023-05-07T14:09:40;4.68;;;2.90;;
65799;SDS011;52544;48.116;11.660;2023-05-07T14:12:05;4.88;;;2.38;;
65799;SDS011;52544;48.116;11.660;2023-05-07T14:14:31;2.58;;;2.33;;
65799;SDS011;52544;48.116;11.660;2023-05-07T14:16:56;5.55;;;2.55;;
65799;SDS011;52544;48.116;11.660;2023-05-07T14:19:22;3.35;;;2.53;;
65799;SDS011;52544;48.116;11.660;2023-05-07T14:21:50;4.90;;;3.65;;
65799;SDS011;52544;48.116;11.660;2023-05-07T14:24:15;6.68;;;2.28;;
65799;SDS011;52544;48.116;11.660;2023-05-07T14:26:41;2.60;;;2.30;;
65799;SDS011;52544;48.116;11.660;2023-05-07T14:29:06;3.53;;;2.70;;
65799;SDS011;52544;48.116;11.660;2023-05-07T14:31:31;9.05;;;2.92;;
65799;SDS011;52544;48.116;11.660;2023-05-07T14:33:58;3.00;;;2.70;;
65799;SDS011;52544;48.116;11.660;2023-05-07T14:36:24;3.17;;;2.53;;
65799;SDS011;52544;48.116;11.660;2023-05-07T14:38:51;4.15;;;2.83;;
65799;SDS011;52544;48.116;11.660;2023-05-07T14:41:18;3.05;;;2.75;;
65799;SDS011;52544;48.116;11.660;2023-05-07T14:43:44;3.90;;;2.67;;
65799;SDS011;52544;48.116;11.660;2023-05-07T14:46:17;4.55;;;2.78;;